<?xml version="1.0" encoding="UTF-8" standalone="no" ?>
<gpx xmlns="http://www.topografix.com/GPX/1/1" xmlns:xsi="http://www.w3.org/2001/XMLSchema-instance" xsi:schemaLocation="http://www.topografix.com/GPX/1/1 http://www.topografix.com/GPX/1/1/gpx.xsd" version="1.1" creator="VisuGPX - https://www.visugpx.com">
  <metadata>
    <name>10702637-fontenoy</name>
  </metadata>
  <trk>
    <name><![CDATA[10702637-fontenoy]]></name>
    <trkseg>
      <trkpt lat="49.39179" lon="3.32735">
        <ele>42</ele>
        <time>2019-11-11T16:26:58Z</time>
      </trkpt>
      <trkpt lat="49.39554" lon="3.3261">
        <ele>39</ele>
        <time>2019-11-11T16:28:28Z</time>
      </trkpt>
      <trkpt lat="49.39556" lon="3.3259">
        <ele>39</ele>
        <time>2019-11-11T16:28:31Z</time>
      </trkpt>
      <trkpt lat="49.39553" lon="3.32583">
        <ele>39</ele>
        <time>2019-11-11T16:28:32Z</time>
      </trkpt>
      <trkpt lat="49.39561" lon="3.3258">
        <ele>39</ele>
        <time>2019-11-11T16:28:34Z</time>
      </trkpt>
      <trkpt lat="49.39567" lon="3.32584">
        <ele>39</ele>
        <time>2019-11-11T16:28:35Z</time>
      </trkpt>
      <trkpt lat="49.39583" lon="3.32575">
        <ele>39</ele>
        <time>2019-11-11T16:28:39Z</time>
      </trkpt>
      <trkpt lat="49.39596" lon="3.32576">
        <ele>39</ele>
        <time>2019-11-11T16:28:42Z</time>
      </trkpt>
      <trkpt lat="49.39674" lon="3.32605">
        <ele>40</ele>
        <time>2019-11-11T16:29:01Z</time>
      </trkpt>
      <trkpt lat="49.3969" lon="3.32593">
        <ele>40</ele>
        <time>2019-11-11T16:29:05Z</time>
      </trkpt>
      <trkpt lat="49.39699" lon="3.3259">
        <ele>40</ele>
        <time>2019-11-11T16:29:07Z</time>
      </trkpt>
      <trkpt lat="49.3971" lon="3.32593">
        <ele>40</ele>
        <time>2019-11-11T16:29:10Z</time>
      </trkpt>
      <trkpt lat="49.39782" lon="3.32683">
        <ele>44</ele>
        <time>2019-11-11T16:29:32Z</time>
      </trkpt>
      <trkpt lat="49.39776" lon="3.32688">
        <ele>44</ele>
        <time>2019-11-11T16:29:33Z</time>
      </trkpt>
      <trkpt lat="49.39773" lon="3.32695">
        <ele>43</ele>
        <time>2019-11-11T16:29:35Z</time>
      </trkpt>
      <trkpt lat="49.39774" lon="3.32704">
        <ele>44</ele>
        <time>2019-11-11T16:29:36Z</time>
      </trkpt>
      <trkpt lat="49.39781" lon="3.3271">
        <ele>44</ele>
        <time>2019-11-11T16:29:38Z</time>
      </trkpt>
      <trkpt lat="49.39788" lon="3.32704">
        <ele>45</ele>
        <time>2019-11-11T16:29:40Z</time>
      </trkpt>
      <trkpt lat="49.3979" lon="3.32693">
        <ele>45</ele>
        <time>2019-11-11T16:29:41Z</time>
      </trkpt>
      <trkpt lat="49.39786" lon="3.32686">
        <ele>44</ele>
        <time>2019-11-11T16:29:43Z</time>
      </trkpt>
      <trkpt lat="49.39791" lon="3.32669">
        <ele>44</ele>
        <time>2019-11-11T16:29:46Z</time>
      </trkpt>
      <trkpt lat="49.39844" lon="3.32544">
        <ele>44</ele>
        <time>2019-11-11T16:30:08Z</time>
      </trkpt>
      <trkpt lat="49.39876" lon="3.32452">
        <ele>46</ele>
        <time>2019-11-11T16:30:24Z</time>
      </trkpt>
      <trkpt lat="49.39881" lon="3.32423">
        <ele>46</ele>
        <time>2019-11-11T16:30:29Z</time>
      </trkpt>
      <trkpt lat="49.39888" lon="3.3242">
        <ele>46</ele>
        <time>2019-11-11T16:30:31Z</time>
      </trkpt>
      <trkpt lat="49.39889" lon="3.32404">
        <ele>46</ele>
        <time>2019-11-11T16:30:33Z</time>
      </trkpt>
      <trkpt lat="49.39897" lon="3.32387">
        <ele>47</ele>
        <time>2019-11-11T16:30:36Z</time>
      </trkpt>
      <trkpt lat="49.39899" lon="3.32333">
        <ele>47</ele>
        <time>2019-11-11T16:30:44Z</time>
      </trkpt>
      <trkpt lat="49.39934" lon="3.32227">
        <ele>53</ele>
        <time>2019-11-11T16:31:02Z</time>
      </trkpt>
      <trkpt lat="49.39935" lon="3.31943">
        <ele>62</ele>
        <time>2019-11-11T16:31:46Z</time>
      </trkpt>
      <trkpt lat="49.3991" lon="3.31934">
        <ele>61</ele>
        <time>2019-11-11T16:31:52Z</time>
      </trkpt>
      <trkpt lat="49.39891" lon="3.31902">
        <ele>60</ele>
        <time>2019-11-11T16:31:58Z</time>
      </trkpt>
      <trkpt lat="49.39867" lon="3.31843">
        <ele>60</ele>
        <time>2019-11-11T16:32:09Z</time>
      </trkpt>
      <trkpt lat="49.39907" lon="3.31746">
        <ele>67</ele>
        <time>2019-11-11T16:32:26Z</time>
      </trkpt>
      <trkpt lat="49.39928" lon="3.31767">
        <ele>67</ele>
        <time>2019-11-11T16:32:32Z</time>
      </trkpt>
      <trkpt lat="49.39954" lon="3.31731">
        <ele>68</ele>
        <time>2019-11-11T16:32:40Z</time>
      </trkpt>
      <trkpt lat="49.39966" lon="3.31675">
        <ele>71</ele>
        <time>2019-11-11T16:32:49Z</time>
      </trkpt>
      <trkpt lat="49.39966" lon="3.31565">
        <ele>83</ele>
        <time>2019-11-11T16:33:06Z</time>
      </trkpt>
      <trkpt lat="49.39955" lon="3.31531">
        <ele>90</ele>
        <time>2019-11-11T16:33:12Z</time>
      </trkpt>
      <trkpt lat="49.39934" lon="3.31491">
        <ele>98</ele>
        <time>2019-11-11T16:33:20Z</time>
      </trkpt>
      <trkpt lat="49.39927" lon="3.31467">
        <ele>103</ele>
        <time>2019-11-11T16:33:24Z</time>
      </trkpt>
      <trkpt lat="49.39934" lon="3.31412">
        <ele>111</ele>
        <time>2019-11-11T16:33:32Z</time>
      </trkpt>
      <trkpt lat="49.39945" lon="3.31365">
        <ele>117</ele>
        <time>2019-11-11T16:33:40Z</time>
      </trkpt>
      <trkpt lat="49.3994" lon="3.31344">
        <ele>121</ele>
        <time>2019-11-11T16:33:43Z</time>
      </trkpt>
      <trkpt lat="49.39915" lon="3.31327">
        <ele>123</ele>
        <time>2019-11-11T16:33:49Z</time>
      </trkpt>
      <trkpt lat="49.39904" lon="3.31315">
        <ele>121</ele>
        <time>2019-11-11T16:33:53Z</time>
      </trkpt>
      <trkpt lat="49.39886" lon="3.31257">
        <ele>121</ele>
        <time>2019-11-11T16:34:02Z</time>
      </trkpt>
      <trkpt lat="49.39868" lon="3.31151">
        <ele>120</ele>
        <time>2019-11-11T16:34:19Z</time>
      </trkpt>
      <trkpt lat="49.39856" lon="3.31045">
        <ele>120</ele>
        <time>2019-11-11T16:34:35Z</time>
      </trkpt>
      <trkpt lat="49.39831" lon="3.30978">
        <ele>120</ele>
        <time>2019-11-11T16:34:47Z</time>
      </trkpt>
      <trkpt lat="49.39825" lon="3.30937">
        <ele>120</ele>
        <time>2019-11-11T16:34:53Z</time>
      </trkpt>
      <trkpt lat="49.3983" lon="3.30874">
        <ele>124</ele>
        <time>2019-11-11T16:35:03Z</time>
      </trkpt>
      <trkpt lat="49.39828" lon="3.30801">
        <ele>126</ele>
        <time>2019-11-11T16:35:14Z</time>
      </trkpt>
      <trkpt lat="49.39815" lon="3.30757">
        <ele>125</ele>
        <time>2019-11-11T16:35:22Z</time>
      </trkpt>
      <trkpt lat="49.39806" lon="3.30689">
        <ele>125</ele>
        <time>2019-11-11T16:35:32Z</time>
      </trkpt>
      <trkpt lat="49.39793" lon="3.30637">
        <ele>125</ele>
        <time>2019-11-11T16:35:41Z</time>
      </trkpt>
      <trkpt lat="49.3979" lon="3.30588">
        <ele>127</ele>
        <time>2019-11-11T16:35:48Z</time>
      </trkpt>
      <trkpt lat="49.39773" lon="3.30525">
        <ele>126</ele>
        <time>2019-11-11T16:35:58Z</time>
      </trkpt>
      <trkpt lat="49.39776" lon="3.3039">
        <ele>128</ele>
        <time>2019-11-11T16:36:19Z</time>
      </trkpt>
      <trkpt lat="49.39797" lon="3.30358">
        <ele>131</ele>
        <time>2019-11-11T16:36:26Z</time>
      </trkpt>
      <trkpt lat="49.39836" lon="3.30356">
        <ele>136</ele>
        <time>2019-11-11T16:36:35Z</time>
      </trkpt>
      <trkpt lat="49.39906" lon="3.30292">
        <ele>126</ele>
        <time>2019-11-11T16:36:54Z</time>
      </trkpt>
      <trkpt lat="49.39901" lon="3.30182">
        <ele>116</ele>
        <time>2019-11-11T16:37:11Z</time>
      </trkpt>
      <trkpt lat="49.39893" lon="3.3008">
        <ele>96</ele>
        <time>2019-11-11T16:37:26Z</time>
      </trkpt>
      <trkpt lat="49.39902" lon="3.29995">
        <ele>77</ele>
        <time>2019-11-11T16:37:39Z</time>
      </trkpt>
      <trkpt lat="49.39924" lon="3.29858">
        <ele>68</ele>
        <time>2019-11-11T16:38:01Z</time>
      </trkpt>
      <trkpt lat="49.39895" lon="3.29863">
        <ele>68</ele>
        <time>2019-11-11T16:38:08Z</time>
      </trkpt>
      <trkpt lat="49.39845" lon="3.29856">
        <ele>67</ele>
        <time>2019-11-11T16:38:19Z</time>
      </trkpt>
      <trkpt lat="49.39742" lon="3.29815">
        <ele>61</ele>
        <time>2019-11-11T16:38:44Z</time>
      </trkpt>
      <trkpt lat="49.39575" lon="3.29775">
        <ele>51</ele>
        <time>2019-11-11T16:39:24Z</time>
      </trkpt>
      <trkpt lat="49.396" lon="3.29682">
        <ele>50</ele>
        <time>2019-11-11T16:39:39Z</time>
      </trkpt>
      <trkpt lat="49.39603" lon="3.29629">
        <ele>49</ele>
        <time>2019-11-11T16:39:47Z</time>
      </trkpt>
      <trkpt lat="49.39598" lon="3.29568">
        <ele>49</ele>
        <time>2019-11-11T16:39:56Z</time>
      </trkpt>
      <trkpt lat="49.39529" lon="3.29289">
        <ele>51</ele>
        <time>2019-11-11T16:40:42Z</time>
      </trkpt>
      <trkpt lat="49.39503" lon="3.29168">
        <ele>51</ele>
        <time>2019-11-11T16:41:01Z</time>
      </trkpt>
      <trkpt lat="49.39466" lon="3.28964">
        <ele>55</ele>
        <time>2019-11-11T16:41:33Z</time>
      </trkpt>
      <trkpt lat="49.39437" lon="3.28847">
        <ele>56</ele>
        <time>2019-11-11T16:41:52Z</time>
      </trkpt>
      <trkpt lat="49.39411" lon="3.28778">
        <ele>58</ele>
        <time>2019-11-11T16:42:05Z</time>
      </trkpt>
      <trkpt lat="49.3934" lon="3.28646">
        <ele>59</ele>
        <time>2019-11-11T16:42:31Z</time>
      </trkpt>
      <trkpt lat="49.39317" lon="3.28571">
        <ele>59</ele>
        <time>2019-11-11T16:42:43Z</time>
      </trkpt>
      <trkpt lat="49.39247" lon="3.28064">
        <ele>66</ele>
        <time>2019-11-11T16:44:02Z</time>
      </trkpt>
      <trkpt lat="49.39392" lon="3.28209">
        <ele>85</ele>
        <time>2019-11-11T16:44:42Z</time>
      </trkpt>
      <trkpt lat="49.39411" lon="3.28234">
        <ele>87</ele>
        <time>2019-11-11T16:44:48Z</time>
      </trkpt>
      <trkpt lat="49.39438" lon="3.28279">
        <ele>91</ele>
        <time>2019-11-11T16:44:57Z</time>
      </trkpt>
      <trkpt lat="49.39464" lon="3.28285">
        <ele>97</ele>
        <time>2019-11-11T16:45:04Z</time>
      </trkpt>
      <trkpt lat="49.39471" lon="3.28258">
        <ele>101</ele>
        <time>2019-11-11T16:45:08Z</time>
      </trkpt>
      <trkpt lat="49.39465" lon="3.2824">
        <ele>101</ele>
        <time>2019-11-11T16:45:11Z</time>
      </trkpt>
      <trkpt lat="49.39435" lon="3.28226">
        <ele>94</ele>
        <time>2019-11-11T16:45:18Z</time>
      </trkpt>
      <trkpt lat="49.39429" lon="3.28209">
        <ele>94</ele>
        <time>2019-11-11T16:45:21Z</time>
      </trkpt>
      <trkpt lat="49.39447" lon="3.28119">
        <ele>105</ele>
        <time>2019-11-11T16:45:36Z</time>
      </trkpt>
      <trkpt lat="49.39443" lon="3.28055">
        <ele>106</ele>
        <time>2019-11-11T16:45:45Z</time>
      </trkpt>
      <trkpt lat="49.39443" lon="3.27996">
        <ele>108</ele>
        <time>2019-11-11T16:45:54Z</time>
      </trkpt>
      <trkpt lat="49.39488" lon="3.27957">
        <ele>119</ele>
        <time>2019-11-11T16:46:06Z</time>
      </trkpt>
      <trkpt lat="49.39516" lon="3.27925">
        <ele>122</ele>
        <time>2019-11-11T16:46:15Z</time>
      </trkpt>
      <trkpt lat="49.39523" lon="3.27909">
        <ele>123</ele>
        <time>2019-11-11T16:46:18Z</time>
      </trkpt>
      <trkpt lat="49.39535" lon="3.27825">
        <ele>124</ele>
        <time>2019-11-11T16:46:31Z</time>
      </trkpt>
      <trkpt lat="49.39543" lon="3.27806">
        <ele>124</ele>
        <time>2019-11-11T16:46:34Z</time>
      </trkpt>
      <trkpt lat="49.39559" lon="3.27794">
        <ele>125</ele>
        <time>2019-11-11T16:46:38Z</time>
      </trkpt>
      <trkpt lat="49.39632" lon="3.27792">
        <ele>125</ele>
        <time>2019-11-11T16:46:55Z</time>
      </trkpt>
      <trkpt lat="49.39711" lon="3.27784">
        <ele>122</ele>
        <time>2019-11-11T16:47:14Z</time>
      </trkpt>
      <trkpt lat="49.39804" lon="3.2779">
        <ele>122</ele>
        <time>2019-11-11T16:47:35Z</time>
      </trkpt>
      <trkpt lat="49.40063" lon="3.28106">
        <ele>120</ele>
        <time>2019-11-11T16:48:53Z</time>
      </trkpt>
      <trkpt lat="49.40087" lon="3.28218">
        <ele>122</ele>
        <time>2019-11-11T16:49:11Z</time>
      </trkpt>
      <trkpt lat="49.40094" lon="3.2842">
        <ele>120</ele>
        <time>2019-11-11T16:49:41Z</time>
      </trkpt>
      <trkpt lat="49.40185" lon="3.2843">
        <ele>119</ele>
        <time>2019-11-11T16:50:03Z</time>
      </trkpt>
      <trkpt lat="49.4017" lon="3.2817">
        <ele>121</ele>
        <time>2019-11-11T16:50:42Z</time>
      </trkpt>
      <trkpt lat="49.40158" lon="3.28079">
        <ele>121</ele>
        <time>2019-11-11T16:50:56Z</time>
      </trkpt>
      <trkpt lat="49.40156" lon="3.27941">
        <ele>122</ele>
        <time>2019-11-11T16:51:17Z</time>
      </trkpt>
      <trkpt lat="49.40172" lon="3.27847">
        <ele>122</ele>
        <time>2019-11-11T16:51:32Z</time>
      </trkpt>
      <trkpt lat="49.40179" lon="3.27758">
        <ele>118</ele>
        <time>2019-11-11T16:51:46Z</time>
      </trkpt>
      <trkpt lat="49.40204" lon="3.2766">
        <ele>114</ele>
        <time>2019-11-11T16:52:02Z</time>
      </trkpt>
      <trkpt lat="49.40204" lon="3.27622">
        <ele>113</ele>
        <time>2019-11-11T16:52:08Z</time>
      </trkpt>
      <trkpt lat="49.40196" lon="3.2761">
        <ele>111</ele>
        <time>2019-11-11T16:52:10Z</time>
      </trkpt>
      <trkpt lat="49.40153" lon="3.27591">
        <ele>102</ele>
        <time>2019-11-11T16:52:21Z</time>
      </trkpt>
      <trkpt lat="49.40077" lon="3.2757">
        <ele>91</ele>
        <time>2019-11-11T16:52:39Z</time>
      </trkpt>
      <trkpt lat="49.40031" lon="3.27543">
        <ele>86</ele>
        <time>2019-11-11T16:52:50Z</time>
      </trkpt>
      <trkpt lat="49.39906" lon="3.27453">
        <ele>74</ele>
        <time>2019-11-11T16:53:22Z</time>
      </trkpt>
      <trkpt lat="49.39881" lon="3.27441">
        <ele>73</ele>
        <time>2019-11-11T16:53:29Z</time>
      </trkpt>
      <trkpt lat="49.39687" lon="3.27291">
        <ele>66</ele>
        <time>2019-11-11T16:54:19Z</time>
      </trkpt>
      <trkpt lat="49.39644" lon="3.27289">
        <ele>66</ele>
        <time>2019-11-11T16:54:29Z</time>
      </trkpt>
      <trkpt lat="49.3952" lon="3.27299">
        <ele>72</ele>
        <time>2019-11-11T16:54:58Z</time>
      </trkpt>
      <trkpt lat="49.39561" lon="3.27184">
        <ele>63</ele>
        <time>2019-11-11T16:55:18Z</time>
      </trkpt>
      <trkpt lat="49.39598" lon="3.27142">
        <ele>63</ele>
        <time>2019-11-11T16:55:29Z</time>
      </trkpt>
      <trkpt lat="49.39633" lon="3.27079">
        <ele>64</ele>
        <time>2019-11-11T16:55:42Z</time>
      </trkpt>
      <trkpt lat="49.39649" lon="3.27037">
        <ele>65</ele>
        <time>2019-11-11T16:55:49Z</time>
      </trkpt>
      <trkpt lat="49.39656" lon="3.26985">
        <ele>68</ele>
        <time>2019-11-11T16:55:57Z</time>
      </trkpt>
      <trkpt lat="49.3961" lon="3.26787">
        <ele>71</ele>
        <time>2019-11-11T16:56:29Z</time>
      </trkpt>
      <trkpt lat="49.39599" lon="3.26762">
        <ele>72</ele>
        <time>2019-11-11T16:56:34Z</time>
      </trkpt>
      <trkpt lat="49.39589" lon="3.26673">
        <ele>72</ele>
        <time>2019-11-11T16:56:47Z</time>
      </trkpt>
      <trkpt lat="49.39589" lon="3.26605">
        <ele>70</ele>
        <time>2019-11-11T16:56:58Z</time>
      </trkpt>
      <trkpt lat="49.396" lon="3.26542">
        <ele>67</ele>
        <time>2019-11-11T16:57:08Z</time>
      </trkpt>
      <trkpt lat="49.39602" lon="3.26509">
        <ele>65</ele>
        <time>2019-11-11T16:57:13Z</time>
      </trkpt>
      <trkpt lat="49.39591" lon="3.26487">
        <ele>62</ele>
        <time>2019-11-11T16:57:17Z</time>
      </trkpt>
      <trkpt lat="49.39573" lon="3.26463">
        <ele>60</ele>
        <time>2019-11-11T16:57:22Z</time>
      </trkpt>
      <trkpt lat="49.39533" lon="3.26444">
        <ele>59</ele>
        <time>2019-11-11T16:57:32Z</time>
      </trkpt>
      <trkpt lat="49.3969" lon="3.26164">
        <ele>58</ele>
        <time>2019-11-11T16:58:28Z</time>
      </trkpt>
      <trkpt lat="49.39735" lon="3.2612">
        <ele>59</ele>
        <time>2019-11-11T16:58:41Z</time>
      </trkpt>
      <trkpt lat="49.39931" lon="3.25978">
        <ele>55</ele>
        <time>2019-11-11T16:59:31Z</time>
      </trkpt>
      <trkpt lat="49.40014" lon="3.25928">
        <ele>52</ele>
        <time>2019-11-11T16:59:52Z</time>
      </trkpt>
      <trkpt lat="49.40019" lon="3.25834">
        <ele>53</ele>
        <time>2019-11-11T17:00:07Z</time>
      </trkpt>
      <trkpt lat="49.40012" lon="3.25812">
        <ele>53</ele>
        <time>2019-11-11T17:00:10Z</time>
      </trkpt>
      <trkpt lat="49.39914" lon="3.25737">
        <ele>55</ele>
        <time>2019-11-11T17:00:36Z</time>
      </trkpt>
      <trkpt lat="49.39832" lon="3.25738">
        <ele>55</ele>
        <time>2019-11-11T17:00:55Z</time>
      </trkpt>
      <trkpt lat="49.39794" lon="3.2573">
        <ele>55</ele>
        <time>2019-11-11T17:01:04Z</time>
      </trkpt>
      <trkpt lat="49.39766" lon="3.25716">
        <ele>55</ele>
        <time>2019-11-11T17:01:11Z</time>
      </trkpt>
      <trkpt lat="49.39771" lon="3.25654">
        <ele>55</ele>
        <time>2019-11-11T17:01:20Z</time>
      </trkpt>
      <trkpt lat="49.39677" lon="3.25479">
        <ele>55</ele>
        <time>2019-11-11T17:01:55Z</time>
      </trkpt>
      <trkpt lat="49.3939" lon="3.25251">
        <ele>52</ele>
        <time>2019-11-11T17:03:10Z</time>
      </trkpt>
      <trkpt lat="49.39441" lon="3.24943">
        <ele>50</ele>
        <time>2019-11-11T17:03:59Z</time>
      </trkpt>
      <trkpt lat="49.3938" lon="3.24914">
        <ele>49</ele>
        <time>2019-11-11T17:04:13Z</time>
      </trkpt>
      <trkpt lat="49.39289" lon="3.24922">
        <ele>46</ele>
        <time>2019-11-11T17:04:35Z</time>
      </trkpt>
      <trkpt lat="49.39284" lon="3.24904">
        <ele>45</ele>
        <time>2019-11-11T17:04:38Z</time>
      </trkpt>
      <trkpt lat="49.39278" lon="3.2482">
        <ele>43</ele>
        <time>2019-11-11T17:04:51Z</time>
      </trkpt>
      <trkpt lat="49.39304" lon="3.24734">
        <ele>42</ele>
        <time>2019-11-11T17:05:05Z</time>
      </trkpt>
      <trkpt lat="49.39306" lon="3.2467">
        <ele>41</ele>
        <time>2019-11-11T17:05:15Z</time>
      </trkpt>
      <trkpt lat="49.39323" lon="3.24586">
        <ele>41</ele>
        <time>2019-11-11T17:05:28Z</time>
      </trkpt>
      <trkpt lat="49.39358" lon="3.24516">
        <ele>42</ele>
        <time>2019-11-11T17:05:42Z</time>
      </trkpt>
      <trkpt lat="49.39398" lon="3.24461">
        <ele>44</ele>
        <time>2019-11-11T17:05:54Z</time>
      </trkpt>
      <trkpt lat="49.39418" lon="3.24413">
        <ele>46</ele>
        <time>2019-11-11T17:06:03Z</time>
      </trkpt>
      <trkpt lat="49.39441" lon="3.243">
        <ele>48</ele>
        <time>2019-11-11T17:06:21Z</time>
      </trkpt>
      <trkpt lat="49.39462" lon="3.24224">
        <ele>49</ele>
        <time>2019-11-11T17:06:33Z</time>
      </trkpt>
      <trkpt lat="49.39499" lon="3.24114">
        <ele>51</ele>
        <time>2019-11-11T17:06:52Z</time>
      </trkpt>
      <trkpt lat="49.39505" lon="3.2409">
        <ele>51</ele>
        <time>2019-11-11T17:06:56Z</time>
      </trkpt>
      <trkpt lat="49.39574" lon="3.24015">
        <ele>52</ele>
        <time>2019-11-11T17:07:16Z</time>
      </trkpt>
      <trkpt lat="49.39609" lon="3.23961">
        <ele>52</ele>
        <time>2019-11-11T17:07:27Z</time>
      </trkpt>
      <trkpt lat="49.39748" lon="3.23654">
        <ele>52</ele>
        <time>2019-11-11T17:08:24Z</time>
      </trkpt>
      <trkpt lat="49.39851" lon="3.23405">
        <ele>53</ele>
        <time>2019-11-11T17:09:09Z</time>
      </trkpt>
      <trkpt lat="49.3993" lon="3.23236">
        <ele>52</ele>
        <time>2019-11-11T17:09:41Z</time>
      </trkpt>
      <trkpt lat="49.39964" lon="3.2312">
        <ele>50</ele>
        <time>2019-11-11T17:10:00Z</time>
      </trkpt>
      <trkpt lat="49.39989" lon="3.23077">
        <ele>51</ele>
        <time>2019-11-11T17:10:09Z</time>
      </trkpt>
      <trkpt lat="49.40053" lon="3.22986">
        <ele>52</ele>
        <time>2019-11-11T17:10:29Z</time>
      </trkpt>
      <trkpt lat="49.40097" lon="3.22931">
        <ele>52</ele>
        <time>2019-11-11T17:10:42Z</time>
      </trkpt>
      <trkpt lat="49.4011" lon="3.22911">
        <ele>53</ele>
        <time>2019-11-11T17:10:47Z</time>
      </trkpt>
      <trkpt lat="49.40112" lon="3.22776">
        <ele>53</ele>
        <time>2019-11-11T17:11:07Z</time>
      </trkpt>
      <trkpt lat="49.40137" lon="3.22785">
        <ele>53</ele>
        <time>2019-11-11T17:11:13Z</time>
      </trkpt>
      <trkpt lat="49.40152" lon="3.2274">
        <ele>53</ele>
        <time>2019-11-11T17:11:21Z</time>
      </trkpt>
      <trkpt lat="49.40181" lon="3.22693">
        <ele>52</ele>
        <time>2019-11-11T17:11:31Z</time>
      </trkpt>
      <trkpt lat="49.40197" lon="3.22617">
        <ele>52</ele>
        <time>2019-11-11T17:11:43Z</time>
      </trkpt>
      <trkpt lat="49.40217" lon="3.22565">
        <ele>52</ele>
        <time>2019-11-11T17:11:52Z</time>
      </trkpt>
      <trkpt lat="49.40222" lon="3.22538">
        <ele>51</ele>
        <time>2019-11-11T17:11:56Z</time>
      </trkpt>
      <trkpt lat="49.40224" lon="3.22463">
        <ele>51</ele>
        <time>2019-11-11T17:12:08Z</time>
      </trkpt>
      <trkpt lat="49.40272" lon="3.22418">
        <ele>51</ele>
        <time>2019-11-11T17:12:21Z</time>
      </trkpt>
      <trkpt lat="49.40298" lon="3.22384">
        <ele>50</ele>
        <time>2019-11-11T17:12:29Z</time>
      </trkpt>
      <trkpt lat="49.40315" lon="3.2233">
        <ele>49</ele>
        <time>2019-11-11T17:12:38Z</time>
      </trkpt>
      <trkpt lat="49.40333" lon="3.22302">
        <ele>49</ele>
        <time>2019-11-11T17:12:44Z</time>
      </trkpt>
      <trkpt lat="49.40317" lon="3.22265">
        <ele>49</ele>
        <time>2019-11-11T17:12:51Z</time>
      </trkpt>
      <trkpt lat="49.40253" lon="3.22148">
        <ele>47</ele>
        <time>2019-11-11T17:13:14Z</time>
      </trkpt>
      <trkpt lat="49.4025" lon="3.22104">
        <ele>46</ele>
        <time>2019-11-11T17:13:21Z</time>
      </trkpt>
      <trkpt lat="49.40261" lon="3.21965">
        <ele>45</ele>
        <time>2019-11-11T17:13:42Z</time>
      </trkpt>
      <trkpt lat="49.40275" lon="3.2188">
        <ele>44</ele>
        <time>2019-11-11T17:13:55Z</time>
      </trkpt>
      <trkpt lat="49.40273" lon="3.21845">
        <ele>44</ele>
        <time>2019-11-11T17:14:01Z</time>
      </trkpt>
      <trkpt lat="49.40195" lon="3.21756">
        <ele>42</ele>
        <time>2019-11-11T17:14:23Z</time>
      </trkpt>
      <trkpt lat="49.4018" lon="3.21733">
        <ele>42</ele>
        <time>2019-11-11T17:14:28Z</time>
      </trkpt>
      <trkpt lat="49.40209" lon="3.21603">
        <ele>41</ele>
        <time>2019-11-11T17:14:49Z</time>
      </trkpt>
      <trkpt lat="49.40275" lon="3.21158">
        <ele>44</ele>
        <time>2019-11-11T17:15:58Z</time>
      </trkpt>
      <trkpt lat="49.40217" lon="3.21121">
        <ele>42</ele>
        <time>2019-11-11T17:16:13Z</time>
      </trkpt>
      <trkpt lat="49.40159" lon="3.21096">
        <ele>41</ele>
        <time>2019-11-11T17:16:27Z</time>
      </trkpt>
      <trkpt lat="49.40129" lon="3.21087">
        <ele>41</ele>
        <time>2019-11-11T17:16:34Z</time>
      </trkpt>
      <trkpt lat="49.40117" lon="3.21075">
        <ele>40</ele>
        <time>2019-11-11T17:16:38Z</time>
      </trkpt>
      <trkpt lat="49.40117" lon="3.21063">
        <ele>40</ele>
        <time>2019-11-11T17:16:39Z</time>
      </trkpt>
      <trkpt lat="49.40131" lon="3.20984">
        <ele>39</ele>
        <time>2019-11-11T17:16:52Z</time>
      </trkpt>
      <trkpt lat="49.40141" lon="3.20958">
        <ele>38</ele>
        <time>2019-11-11T17:16:56Z</time>
      </trkpt>
      <trkpt lat="49.40244" lon="3.20743">
        <ele>39</ele>
        <time>2019-11-11T17:17:37Z</time>
      </trkpt>
      <trkpt lat="49.40278" lon="3.20652">
        <ele>40</ele>
        <time>2019-11-11T17:17:53Z</time>
      </trkpt>
      <trkpt lat="49.40319" lon="3.20382">
        <ele>38</ele>
        <time>2019-11-11T17:18:35Z</time>
      </trkpt>
      <trkpt lat="49.40332" lon="3.20231">
        <ele>39</ele>
        <time>2019-11-11T17:18:58Z</time>
      </trkpt>
      <trkpt lat="49.40356" lon="3.20111">
        <ele>40</ele>
        <time>2019-11-11T17:19:17Z</time>
      </trkpt>
      <trkpt lat="49.40355" lon="3.20069">
        <ele>40</ele>
        <time>2019-11-11T17:19:24Z</time>
      </trkpt>
      <trkpt lat="49.40343" lon="3.19976">
        <ele>38</ele>
        <time>2019-11-11T17:19:38Z</time>
      </trkpt>
      <trkpt lat="49.4034" lon="3.19913">
        <ele>38</ele>
        <time>2019-11-11T17:19:48Z</time>
      </trkpt>
      <trkpt lat="49.40359" lon="3.19632">
        <ele>39</ele>
        <time>2019-11-11T17:20:31Z</time>
      </trkpt>
      <trkpt lat="49.40362" lon="3.19502">
        <ele>39</ele>
        <time>2019-11-11T17:20:50Z</time>
      </trkpt>
      <trkpt lat="49.40367" lon="3.19449">
        <ele>39</ele>
        <time>2019-11-11T17:20:59Z</time>
      </trkpt>
      <trkpt lat="49.40376" lon="3.19408">
        <ele>39</ele>
        <time>2019-11-11T17:21:05Z</time>
      </trkpt>
      <trkpt lat="49.40396" lon="3.1935">
        <ele>39</ele>
        <time>2019-11-11T17:21:15Z</time>
      </trkpt>
      <trkpt lat="49.40426" lon="3.19209">
        <ele>38</ele>
        <time>2019-11-11T17:21:38Z</time>
      </trkpt>
      <trkpt lat="49.40448" lon="3.19071">
        <ele>40</ele>
        <time>2019-11-11T17:21:59Z</time>
      </trkpt>
      <trkpt lat="49.4045" lon="3.18996">
        <ele>40</ele>
        <time>2019-11-11T17:22:11Z</time>
      </trkpt>
      <trkpt lat="49.40462" lon="3.18947">
        <ele>42</ele>
        <time>2019-11-11T17:22:19Z</time>
      </trkpt>
      <trkpt lat="49.40485" lon="3.18885">
        <ele>43</ele>
        <time>2019-11-11T17:22:29Z</time>
      </trkpt>
      <trkpt lat="49.40487" lon="3.1884">
        <ele>42</ele>
        <time>2019-11-11T17:22:36Z</time>
      </trkpt>
      <trkpt lat="49.40461" lon="3.18682">
        <ele>43</ele>
        <time>2019-11-11T17:23:01Z</time>
      </trkpt>
      <trkpt lat="49.40463" lon="3.18659">
        <ele>44</ele>
        <time>2019-11-11T17:23:05Z</time>
      </trkpt>
      <trkpt lat="49.40478" lon="3.18649">
        <ele>44</ele>
        <time>2019-11-11T17:23:08Z</time>
      </trkpt>
      <trkpt lat="49.40517" lon="3.18646">
        <ele>44</ele>
        <time>2019-11-11T17:23:18Z</time>
      </trkpt>
      <trkpt lat="49.4063" lon="3.18453">
        <ele>42</ele>
        <time>2019-11-11T17:23:57Z</time>
      </trkpt>
      <trkpt lat="49.40656" lon="3.18345">
        <ele>42</ele>
        <time>2019-11-11T17:24:14Z</time>
      </trkpt>
      <trkpt lat="49.40668" lon="3.18321">
        <ele>42</ele>
        <time>2019-11-11T17:24:19Z</time>
      </trkpt>
      <trkpt lat="49.40696" lon="3.18189">
        <ele>42</ele>
        <time>2019-11-11T17:24:40Z</time>
      </trkpt>
      <trkpt lat="49.40696" lon="3.18162">
        <ele>42</ele>
        <time>2019-11-11T17:24:44Z</time>
      </trkpt>
      <trkpt lat="49.40689" lon="3.18098">
        <ele>42</ele>
        <time>2019-11-11T17:24:54Z</time>
      </trkpt>
      <trkpt lat="49.40691" lon="3.18054">
        <ele>42</ele>
        <time>2019-11-11T17:25:01Z</time>
      </trkpt>
      <trkpt lat="49.40673" lon="3.17928">
        <ele>42</ele>
        <time>2019-11-11T17:25:20Z</time>
      </trkpt>
      <trkpt lat="49.40664" lon="3.17902">
        <ele>42</ele>
        <time>2019-11-11T17:25:25Z</time>
      </trkpt>
      <trkpt lat="49.40663" lon="3.17847">
        <ele>41</ele>
        <time>2019-11-11T17:25:33Z</time>
      </trkpt>
      <trkpt lat="49.407" lon="3.17749">
        <ele>47</ele>
        <time>2019-11-11T17:25:51Z</time>
      </trkpt>
      <trkpt lat="49.4071" lon="3.17691">
        <ele>48</ele>
        <time>2019-11-11T17:26:00Z</time>
      </trkpt>
      <trkpt lat="49.40732" lon="3.17632">
        <ele>52</ele>
        <time>2019-11-11T17:26:10Z</time>
      </trkpt>
      <trkpt lat="49.40737" lon="3.17515">
        <ele>55</ele>
        <time>2019-11-11T17:26:28Z</time>
      </trkpt>
      <trkpt lat="49.40748" lon="3.17466">
        <ele>55</ele>
        <time>2019-11-11T17:26:36Z</time>
      </trkpt>
      <trkpt lat="49.40751" lon="3.17398">
        <ele>55</ele>
        <time>2019-11-11T17:26:46Z</time>
      </trkpt>
      <trkpt lat="49.40748" lon="3.17305">
        <ele>52</ele>
        <time>2019-11-11T17:27:00Z</time>
      </trkpt>
      <trkpt lat="49.40769" lon="3.17291">
        <ele>54</ele>
        <time>2019-11-11T17:27:06Z</time>
      </trkpt>
      <trkpt lat="49.40797" lon="3.17291">
        <ele>57</ele>
        <time>2019-11-11T17:27:12Z</time>
      </trkpt>
      <trkpt lat="49.40815" lon="3.17281">
        <ele>59</ele>
        <time>2019-11-11T17:27:17Z</time>
      </trkpt>
      <trkpt lat="49.40791" lon="3.17169">
        <ele>54</ele>
        <time>2019-11-11T17:27:34Z</time>
      </trkpt>
      <trkpt lat="49.40752" lon="3.17044">
        <ele>46</ele>
        <time>2019-11-11T17:27:55Z</time>
      </trkpt>
      <trkpt lat="49.40754" lon="3.16984">
        <ele>44</ele>
        <time>2019-11-11T17:28:05Z</time>
      </trkpt>
      <trkpt lat="49.40774" lon="3.1682">
        <ele>49</ele>
        <time>2019-11-11T17:28:30Z</time>
      </trkpt>
      <trkpt lat="49.40764" lon="3.16768">
        <ele>49</ele>
        <time>2019-11-11T17:28:38Z</time>
      </trkpt>
      <trkpt lat="49.40679" lon="3.16817">
        <ele>43</ele>
        <time>2019-11-11T17:28:59Z</time>
      </trkpt>
      <trkpt lat="49.40508" lon="3.16853">
        <ele>37</ele>
        <time>2019-11-11T17:29:40Z</time>
      </trkpt>
      <trkpt lat="49.40494" lon="3.16842">
        <ele>37</ele>
        <time>2019-11-11T17:29:43Z</time>
      </trkpt>
      <trkpt lat="49.40434" lon="3.16519">
        <ele>38</ele>
        <time>2019-11-11T17:30:34Z</time>
      </trkpt>
      <trkpt lat="49.40434" lon="3.1647">
        <ele>38</ele>
        <time>2019-11-11T17:30:42Z</time>
      </trkpt>
      <trkpt lat="49.40449" lon="3.16344">
        <ele>38</ele>
        <time>2019-11-11T17:31:01Z</time>
      </trkpt>
      <trkpt lat="49.40462" lon="3.1608">
        <ele>39</ele>
        <time>2019-11-11T17:31:42Z</time>
      </trkpt>
      <trkpt lat="49.4046" lon="3.15886">
        <ele>38</ele>
        <time>2019-11-11T17:32:11Z</time>
      </trkpt>
      <trkpt lat="49.40434" lon="3.15705">
        <ele>38</ele>
        <time>2019-11-11T17:32:39Z</time>
      </trkpt>
      <trkpt lat="49.40426" lon="3.15527">
        <ele>37</ele>
        <time>2019-11-11T17:33:06Z</time>
      </trkpt>
      <trkpt lat="49.40433" lon="3.1537">
        <ele>37</ele>
        <time>2019-11-11T17:33:30Z</time>
      </trkpt>
      <trkpt lat="49.40462" lon="3.14872">
        <ele>40</ele>
        <time>2019-11-11T17:34:46Z</time>
      </trkpt>
      <trkpt lat="49.40557" lon="3.14834">
        <ele>49</ele>
        <time>2019-11-11T17:35:09Z</time>
      </trkpt>
      <trkpt lat="49.40564" lon="3.14809">
        <ele>49</ele>
        <time>2019-11-11T17:35:13Z</time>
      </trkpt>
      <trkpt lat="49.40574" lon="3.14751">
        <ele>51</ele>
        <time>2019-11-11T17:35:22Z</time>
      </trkpt>
      <trkpt lat="49.40578" lon="3.14586">
        <ele>54</ele>
        <time>2019-11-11T17:35:48Z</time>
      </trkpt>
      <trkpt lat="49.40577" lon="3.14474">
        <ele>54</ele>
        <time>2019-11-11T17:36:05Z</time>
      </trkpt>
      <trkpt lat="49.40586" lon="3.14358">
        <ele>56</ele>
        <time>2019-11-11T17:36:22Z</time>
      </trkpt>
      <trkpt lat="49.40567" lon="3.14251">
        <ele>52</ele>
        <time>2019-11-11T17:36:39Z</time>
      </trkpt>
      <trkpt lat="49.40574" lon="3.1409">
        <ele>51</ele>
        <time>2019-11-11T17:37:04Z</time>
      </trkpt>
      <trkpt lat="49.40606" lon="3.14">
        <ele>52</ele>
        <time>2019-11-11T17:37:19Z</time>
      </trkpt>
      <trkpt lat="49.40642" lon="3.13968">
        <ele>54</ele>
        <time>2019-11-11T17:37:29Z</time>
      </trkpt>
      <trkpt lat="49.40712" lon="3.13935">
        <ele>56</ele>
        <time>2019-11-11T17:37:46Z</time>
      </trkpt>
      <trkpt lat="49.40779" lon="3.13923">
        <ele>56</ele>
        <time>2019-11-11T17:38:02Z</time>
      </trkpt>
      <trkpt lat="49.4085" lon="3.13961">
        <ele>58</ele>
        <time>2019-11-11T17:38:19Z</time>
      </trkpt>
      <trkpt lat="49.40907" lon="3.13978">
        <ele>58</ele>
        <time>2019-11-11T17:38:33Z</time>
      </trkpt>
      <trkpt lat="49.40988" lon="3.13931">
        <ele>59</ele>
        <time>2019-11-11T17:38:53Z</time>
      </trkpt>
      <trkpt lat="49.41012" lon="3.13785">
        <ele>58</ele>
        <time>2019-11-11T17:39:16Z</time>
      </trkpt>
      <trkpt lat="49.41026" lon="3.13635">
        <ele>57</ele>
        <time>2019-11-11T17:39:39Z</time>
      </trkpt>
      <trkpt lat="49.41012" lon="3.13468">
        <ele>54</ele>
        <time>2019-11-11T17:40:05Z</time>
      </trkpt>
      <trkpt lat="49.41014" lon="3.1338">
        <ele>53</ele>
        <time>2019-11-11T17:40:18Z</time>
      </trkpt>
      <trkpt lat="49.41009" lon="3.13244">
        <ele>54</ele>
        <time>2019-11-11T17:40:39Z</time>
      </trkpt>
      <trkpt lat="49.41016" lon="3.13154">
        <ele>55</ele>
        <time>2019-11-11T17:40:52Z</time>
      </trkpt>
      <trkpt lat="49.41019" lon="3.13071">
        <ele>53</ele>
        <time>2019-11-11T17:41:05Z</time>
      </trkpt>
      <trkpt lat="49.41036" lon="3.12985">
        <ele>53</ele>
        <time>2019-11-11T17:41:19Z</time>
      </trkpt>
      <trkpt lat="49.41039" lon="3.12953">
        <ele>52</ele>
        <time>2019-11-11T17:41:24Z</time>
      </trkpt>
      <trkpt lat="49.41062" lon="3.12927">
        <ele>54</ele>
        <time>2019-11-11T17:41:30Z</time>
      </trkpt>
      <trkpt lat="49.41075" lon="3.12888">
        <ele>54</ele>
        <time>2019-11-11T17:41:37Z</time>
      </trkpt>
      <trkpt lat="49.41122" lon="3.12802">
        <ele>56</ele>
        <time>2019-11-11T17:41:54Z</time>
      </trkpt>
      <trkpt lat="49.41167" lon="3.12687">
        <ele>58</ele>
        <time>2019-11-11T17:42:14Z</time>
      </trkpt>
      <trkpt lat="49.41223" lon="3.12661">
        <ele>61</ele>
        <time>2019-11-11T17:42:28Z</time>
      </trkpt>
      <trkpt lat="49.41245" lon="3.12665">
        <ele>63</ele>
        <time>2019-11-11T17:42:33Z</time>
      </trkpt>
      <trkpt lat="49.41417" lon="3.12852">
        <ele>84</ele>
        <time>2019-11-11T17:43:23Z</time>
      </trkpt>
      <trkpt lat="49.41516" lon="3.12873">
        <ele>93</ele>
        <time>2019-11-11T17:43:46Z</time>
      </trkpt>
      <trkpt lat="49.41562" lon="3.12912">
        <ele>99</ele>
        <time>2019-11-11T17:43:58Z</time>
      </trkpt>
      <trkpt lat="49.41601" lon="3.12991">
        <ele>108</ele>
        <time>2019-11-11T17:44:13Z</time>
      </trkpt>
      <trkpt lat="49.41654" lon="3.13084">
        <ele>111</ele>
        <time>2019-11-11T17:44:32Z</time>
      </trkpt>
      <trkpt lat="49.41667" lon="3.13146">
        <ele>117</ele>
        <time>2019-11-11T17:44:42Z</time>
      </trkpt>
      <trkpt lat="49.41657" lon="3.13217">
        <ele>125</ele>
        <time>2019-11-11T17:44:53Z</time>
      </trkpt>
      <trkpt lat="49.41659" lon="3.13244">
        <ele>127</ele>
        <time>2019-11-11T17:44:57Z</time>
      </trkpt>
      <trkpt lat="49.41686" lon="3.13358">
        <ele>132</ele>
        <time>2019-11-11T17:45:15Z</time>
      </trkpt>
      <trkpt lat="49.41694" lon="3.13407">
        <ele>133</ele>
        <time>2019-11-11T17:45:23Z</time>
      </trkpt>
      <trkpt lat="49.41747" lon="3.13583">
        <ele>132</ele>
        <time>2019-11-11T17:45:53Z</time>
      </trkpt>
      <trkpt lat="49.41771" lon="3.13646">
        <ele>134</ele>
        <time>2019-11-11T17:46:04Z</time>
      </trkpt>
      <trkpt lat="49.41781" lon="3.13686">
        <ele>136</ele>
        <time>2019-11-11T17:46:10Z</time>
      </trkpt>
      <trkpt lat="49.41589" lon="3.13672">
        <ele>135</ele>
        <time>2019-11-11T17:46:55Z</time>
      </trkpt>
      <trkpt lat="49.41548" lon="3.13682">
        <ele>132</ele>
        <time>2019-11-11T17:47:05Z</time>
      </trkpt>
      <trkpt lat="49.41501" lon="3.13681">
        <ele>129</ele>
        <time>2019-11-11T17:47:16Z</time>
      </trkpt>
      <trkpt lat="49.41511" lon="3.13707">
        <ele>129</ele>
        <time>2019-11-11T17:47:20Z</time>
      </trkpt>
      <trkpt lat="49.41536" lon="3.14103">
        <ele>122</ele>
        <time>2019-11-11T17:48:21Z</time>
      </trkpt>
      <trkpt lat="49.41536" lon="3.14141">
        <ele>122</ele>
        <time>2019-11-11T17:48:27Z</time>
      </trkpt>
      <trkpt lat="49.41546" lon="3.14222">
        <ele>124</ele>
        <time>2019-11-11T17:48:39Z</time>
      </trkpt>
      <trkpt lat="49.41545" lon="3.14287">
        <ele>126</ele>
        <time>2019-11-11T17:48:49Z</time>
      </trkpt>
      <trkpt lat="49.41522" lon="3.14393">
        <ele>126</ele>
        <time>2019-11-11T17:49:06Z</time>
      </trkpt>
      <trkpt lat="49.41497" lon="3.14476">
        <ele>126</ele>
        <time>2019-11-11T17:49:20Z</time>
      </trkpt>
      <trkpt lat="49.41413" lon="3.14677">
        <ele>120</ele>
        <time>2019-11-11T17:49:56Z</time>
      </trkpt>
      <trkpt lat="49.41357" lon="3.14794">
        <ele>122</ele>
        <time>2019-11-11T17:50:18Z</time>
      </trkpt>
      <trkpt lat="49.41391" lon="3.14832">
        <ele>124</ele>
        <time>2019-11-11T17:50:28Z</time>
      </trkpt>
      <trkpt lat="49.41418" lon="3.14884">
        <ele>125</ele>
        <time>2019-11-11T17:50:38Z</time>
      </trkpt>
      <trkpt lat="49.41469" lon="3.15054">
        <ele>128</ele>
        <time>2019-11-11T17:51:07Z</time>
      </trkpt>
      <trkpt lat="49.41489" lon="3.15113">
        <ele>127</ele>
        <time>2019-11-11T17:51:17Z</time>
      </trkpt>
      <trkpt lat="49.41611" lon="3.15337">
        <ele>130</ele>
        <time>2019-11-11T17:52:01Z</time>
      </trkpt>
      <trkpt lat="49.41725" lon="3.15478">
        <ele>132</ele>
        <time>2019-11-11T17:52:35Z</time>
      </trkpt>
      <trkpt lat="49.41879" lon="3.15813">
        <ele>132</ele>
        <time>2019-11-11T17:53:38Z</time>
      </trkpt>
      <trkpt lat="49.42115" lon="3.1651">
        <ele>125</ele>
        <time>2019-11-11T17:55:37Z</time>
      </trkpt>
      <trkpt lat="49.42183" lon="3.16943">
        <ele>134</ele>
        <time>2019-11-11T17:56:45Z</time>
      </trkpt>
      <trkpt lat="49.42186" lon="3.17001">
        <ele>134</ele>
        <time>2019-11-11T17:56:53Z</time>
      </trkpt>
      <trkpt lat="49.42003" lon="3.17252">
        <ele>128</ele>
        <time>2019-11-11T17:57:51Z</time>
      </trkpt>
      <trkpt lat="49.41845" lon="3.1741">
        <ele>132</ele>
        <time>2019-11-11T17:58:35Z</time>
      </trkpt>
      <trkpt lat="49.41799" lon="3.17441">
        <ele>132</ele>
        <time>2019-11-11T17:58:46Z</time>
      </trkpt>
      <trkpt lat="49.41847" lon="3.17529">
        <ele>134</ele>
        <time>2019-11-11T17:59:04Z</time>
      </trkpt>
      <trkpt lat="49.42021" lon="3.17778">
        <ele>138</ele>
        <time>2019-11-11T17:59:59Z</time>
      </trkpt>
      <trkpt lat="49.42239" lon="3.18096">
        <ele>136</ele>
        <time>2019-11-11T18:01:10Z</time>
      </trkpt>
      <trkpt lat="49.42404" lon="3.18323">
        <ele>139</ele>
        <time>2019-11-11T18:02:01Z</time>
      </trkpt>
      <trkpt lat="49.42411" lon="3.18354">
        <ele>140</ele>
        <time>2019-11-11T18:02:06Z</time>
      </trkpt>
      <trkpt lat="49.42528" lon="3.18228">
        <ele>136</ele>
        <time>2019-11-11T18:02:40Z</time>
      </trkpt>
      <trkpt lat="49.42584" lon="3.18172">
        <ele>133</ele>
        <time>2019-11-11T18:02:55Z</time>
      </trkpt>
      <trkpt lat="49.42913" lon="3.18181">
        <ele>133</ele>
        <time>2019-11-11T18:04:12Z</time>
      </trkpt>
      <trkpt lat="49.42968" lon="3.18161">
        <ele>133</ele>
        <time>2019-11-11T18:04:25Z</time>
      </trkpt>
      <trkpt lat="49.43096" lon="3.18058">
        <ele>128</ele>
        <time>2019-11-11T18:04:59Z</time>
      </trkpt>
      <trkpt lat="49.432" lon="3.18071">
        <ele>128</ele>
        <time>2019-11-11T18:05:23Z</time>
      </trkpt>
      <trkpt lat="49.43209" lon="3.18127">
        <ele>130</ele>
        <time>2019-11-11T18:05:32Z</time>
      </trkpt>
      <trkpt lat="49.43328" lon="3.18345">
        <ele>136</ele>
        <time>2019-11-11T18:06:15Z</time>
      </trkpt>
      <trkpt lat="49.43378" lon="3.18401">
        <ele>138</ele>
        <time>2019-11-11T18:06:30Z</time>
      </trkpt>
      <trkpt lat="49.43394" lon="3.1843">
        <ele>138</ele>
        <time>2019-11-11T18:06:36Z</time>
      </trkpt>
      <trkpt lat="49.43515" lon="3.18769">
        <ele>141</ele>
        <time>2019-11-11T18:07:34Z</time>
      </trkpt>
      <trkpt lat="49.43643" lon="3.19115">
        <ele>142</ele>
        <time>2019-11-11T18:08:35Z</time>
      </trkpt>
      <trkpt lat="49.43708" lon="3.19078">
        <ele>139</ele>
        <time>2019-11-11T18:08:51Z</time>
      </trkpt>
      <trkpt lat="49.43967" lon="3.19004">
        <ele>129</ele>
        <time>2019-11-11T18:09:52Z</time>
      </trkpt>
      <trkpt lat="49.44004" lon="3.19004">
        <ele>127</ele>
        <time>2019-11-11T18:10:01Z</time>
      </trkpt>
      <trkpt lat="49.44023" lon="3.18982">
        <ele>121</ele>
        <time>2019-11-11T18:10:07Z</time>
      </trkpt>
      <trkpt lat="49.44028" lon="3.18924">
        <ele>112</ele>
        <time>2019-11-11T18:10:16Z</time>
      </trkpt>
      <trkpt lat="49.44025" lon="3.18906">
        <ele>110</ele>
        <time>2019-11-11T18:10:18Z</time>
      </trkpt>
      <trkpt lat="49.44015" lon="3.18906">
        <ele>112</ele>
        <time>2019-11-11T18:10:21Z</time>
      </trkpt>
      <trkpt lat="49.44004" lon="3.18892">
        <ele>112</ele>
        <time>2019-11-11T18:10:24Z</time>
      </trkpt>
      <trkpt lat="49.44004" lon="3.1887">
        <ele>108</ele>
        <time>2019-11-11T18:10:27Z</time>
      </trkpt>
      <trkpt lat="49.44031" lon="3.18801">
        <ele>93</ele>
        <time>2019-11-11T18:10:40Z</time>
      </trkpt>
      <trkpt lat="49.44055" lon="3.18753">
        <ele>84</ele>
        <time>2019-11-11T18:10:49Z</time>
      </trkpt>
      <trkpt lat="49.44096" lon="3.1874">
        <ele>80</ele>
        <time>2019-11-11T18:10:59Z</time>
      </trkpt>
      <trkpt lat="49.44201" lon="3.18679">
        <ele>85</ele>
        <time>2019-11-11T18:11:25Z</time>
      </trkpt>
      <trkpt lat="49.44231" lon="3.18737">
        <ele>76</ele>
        <time>2019-11-11T18:11:36Z</time>
      </trkpt>
      <trkpt lat="49.44273" lon="3.18733">
        <ele>76</ele>
        <time>2019-11-11T18:11:46Z</time>
      </trkpt>
      <trkpt lat="49.44309" lon="3.18762">
        <ele>75</ele>
        <time>2019-11-11T18:11:55Z</time>
      </trkpt>
      <trkpt lat="49.44336" lon="3.18801">
        <ele>74</ele>
        <time>2019-11-11T18:12:04Z</time>
      </trkpt>
      <trkpt lat="49.44354" lon="3.18845">
        <ele>77</ele>
        <time>2019-11-11T18:12:12Z</time>
      </trkpt>
      <trkpt lat="49.44464" lon="3.18829">
        <ele>80</ele>
        <time>2019-11-11T18:12:38Z</time>
      </trkpt>
      <trkpt lat="49.44517" lon="3.18841">
        <ele>79</ele>
        <time>2019-11-11T18:12:50Z</time>
      </trkpt>
      <trkpt lat="49.44567" lon="3.18857">
        <ele>77</ele>
        <time>2019-11-11T18:13:02Z</time>
      </trkpt>
      <trkpt lat="49.44624" lon="3.18881">
        <ele>75</ele>
        <time>2019-11-11T18:13:16Z</time>
      </trkpt>
      <trkpt lat="49.44708" lon="3.18967">
        <ele>76</ele>
        <time>2019-11-11T18:13:40Z</time>
      </trkpt>
      <trkpt lat="49.44769" lon="3.19022">
        <ele>71</ele>
        <time>2019-11-11T18:13:56Z</time>
      </trkpt>
      <trkpt lat="49.44829" lon="3.19061">
        <ele>65</ele>
        <time>2019-11-11T18:14:11Z</time>
      </trkpt>
      <trkpt lat="49.44902" lon="3.19121">
        <ele>63</ele>
        <time>2019-11-11T18:14:31Z</time>
      </trkpt>
      <trkpt lat="49.44945" lon="3.19213">
        <ele>62</ele>
        <time>2019-11-11T18:14:48Z</time>
      </trkpt>
      <trkpt lat="49.45" lon="3.19238">
        <ele>62</ele>
        <time>2019-11-11T18:15:01Z</time>
      </trkpt>
      <trkpt lat="49.4508" lon="3.19328">
        <ele>59</ele>
        <time>2019-11-11T18:15:24Z</time>
      </trkpt>
      <trkpt lat="49.45128" lon="3.19348">
        <ele>57</ele>
        <time>2019-11-11T18:15:36Z</time>
      </trkpt>
      <trkpt lat="49.4519" lon="3.19348">
        <ele>55</ele>
        <time>2019-11-11T18:15:50Z</time>
      </trkpt>
      <trkpt lat="49.45231" lon="3.19332">
        <ele>55</ele>
        <time>2019-11-11T18:16:00Z</time>
      </trkpt>
      <trkpt lat="49.45307" lon="3.19276">
        <ele>55</ele>
        <time>2019-11-11T18:16:20Z</time>
      </trkpt>
      <trkpt lat="49.45422" lon="3.19175">
        <ele>60</ele>
        <time>2019-11-11T18:16:51Z</time>
      </trkpt>
      <trkpt lat="49.45438" lon="3.19146">
        <ele>62</ele>
        <time>2019-11-11T18:16:57Z</time>
      </trkpt>
      <trkpt lat="49.45447" lon="3.19112">
        <ele>64</ele>
        <time>2019-11-11T18:17:02Z</time>
      </trkpt>
      <trkpt lat="49.45455" lon="3.19061">
        <ele>66</ele>
        <time>2019-11-11T18:17:10Z</time>
      </trkpt>
      <trkpt lat="49.45569" lon="3.19408">
        <ele>68</ele>
        <time>2019-11-11T18:18:09Z</time>
      </trkpt>
      <trkpt lat="49.45615" lon="3.19496">
        <ele>68</ele>
        <time>2019-11-11T18:18:26Z</time>
      </trkpt>
      <trkpt lat="49.45629" lon="3.19532">
        <ele>68</ele>
        <time>2019-11-11T18:18:33Z</time>
      </trkpt>
      <trkpt lat="49.45642" lon="3.19594">
        <ele>68</ele>
        <time>2019-11-11T18:18:43Z</time>
      </trkpt>
      <trkpt lat="49.4565" lon="3.1965">
        <ele>70</ele>
        <time>2019-11-11T18:18:51Z</time>
      </trkpt>
      <trkpt lat="49.45669" lon="3.19707">
        <ele>71</ele>
        <time>2019-11-11T18:19:01Z</time>
      </trkpt>
      <trkpt lat="49.45702" lon="3.19756">
        <ele>71</ele>
        <time>2019-11-11T18:19:12Z</time>
      </trkpt>
      <trkpt lat="49.45741" lon="3.19778">
        <ele>72</ele>
        <time>2019-11-11T18:19:21Z</time>
      </trkpt>
      <trkpt lat="49.45777" lon="3.19785">
        <ele>72</ele>
        <time>2019-11-11T18:19:30Z</time>
      </trkpt>
      <trkpt lat="49.45811" lon="3.19783">
        <ele>72</ele>
        <time>2019-11-11T18:19:38Z</time>
      </trkpt>
      <trkpt lat="49.45863" lon="3.19799">
        <ele>77</ele>
        <time>2019-11-11T18:19:50Z</time>
      </trkpt>
      <trkpt lat="49.45965" lon="3.19797">
        <ele>95</ele>
        <time>2019-11-11T18:20:14Z</time>
      </trkpt>
      <trkpt lat="49.46015" lon="3.19781">
        <ele>106</ele>
        <time>2019-11-11T18:20:26Z</time>
      </trkpt>
      <trkpt lat="49.46053" lon="3.19799">
        <ele>112</ele>
        <time>2019-11-11T18:20:35Z</time>
      </trkpt>
      <trkpt lat="49.46092" lon="3.19852">
        <ele>117</ele>
        <time>2019-11-11T18:20:47Z</time>
      </trkpt>
      <trkpt lat="49.46151" lon="3.19844">
        <ele>123</ele>
        <time>2019-11-11T18:21:01Z</time>
      </trkpt>
      <trkpt lat="49.46145" lon="3.20377">
        <ele>119</ele>
        <time>2019-11-11T18:22:22Z</time>
      </trkpt>
      <trkpt lat="49.46195" lon="3.20472">
        <ele>120</ele>
        <time>2019-11-11T18:22:41Z</time>
      </trkpt>
      <trkpt lat="49.46208" lon="3.20532">
        <ele>120</ele>
        <time>2019-11-11T18:22:50Z</time>
      </trkpt>
      <trkpt lat="49.46199" lon="3.20646">
        <ele>118</ele>
        <time>2019-11-11T18:23:08Z</time>
      </trkpt>
      <trkpt lat="49.46206" lon="3.20817">
        <ele>117</ele>
        <time>2019-11-11T18:23:34Z</time>
      </trkpt>
      <trkpt lat="49.46236" lon="3.20886">
        <ele>118</ele>
        <time>2019-11-11T18:23:46Z</time>
      </trkpt>
      <trkpt lat="49.46248" lon="3.20959">
        <ele>118</ele>
        <time>2019-11-11T18:23:58Z</time>
      </trkpt>
      <trkpt lat="49.46245" lon="3.21091">
        <ele>118</ele>
        <time>2019-11-11T18:24:18Z</time>
      </trkpt>
      <trkpt lat="49.46262" lon="3.21158">
        <ele>122</ele>
        <time>2019-11-11T18:24:29Z</time>
      </trkpt>
      <trkpt lat="49.46324" lon="3.21207">
        <ele>128</ele>
        <time>2019-11-11T18:24:45Z</time>
      </trkpt>
      <trkpt lat="49.4643" lon="3.21255">
        <ele>134</ele>
        <time>2019-11-11T18:25:11Z</time>
      </trkpt>
      <trkpt lat="49.46537" lon="3.2127">
        <ele>140</ele>
        <time>2019-11-11T18:25:36Z</time>
      </trkpt>
      <trkpt lat="49.46913" lon="3.2119">
        <ele>150</ele>
        <time>2019-11-11T18:27:05Z</time>
      </trkpt>
      <trkpt lat="49.47315" lon="3.21111">
        <ele>147</ele>
        <time>2019-11-11T18:28:39Z</time>
      </trkpt>
      <trkpt lat="49.47456" lon="3.21061">
        <ele>147</ele>
        <time>2019-11-11T18:29:13Z</time>
      </trkpt>
      <trkpt lat="49.47838" lon="3.21589">
        <ele>146</ele>
        <time>2019-11-11T18:31:13Z</time>
      </trkpt>
      <trkpt lat="49.47884" lon="3.21645">
        <ele>146</ele>
        <time>2019-11-11T18:31:27Z</time>
      </trkpt>
      <trkpt lat="49.47911" lon="3.21685">
        <ele>145</ele>
        <time>2019-11-11T18:31:35Z</time>
      </trkpt>
      <trkpt lat="49.4786" lon="3.22491">
        <ele>154</ele>
        <time>2019-11-11T18:33:38Z</time>
      </trkpt>
      <trkpt lat="49.47874" lon="3.22693">
        <ele>148</ele>
        <time>2019-11-11T18:34:09Z</time>
      </trkpt>
      <trkpt lat="49.47871" lon="3.22827">
        <ele>141</ele>
        <time>2019-11-11T18:34:29Z</time>
      </trkpt>
      <trkpt lat="49.47862" lon="3.22919">
        <ele>139</ele>
        <time>2019-11-11T18:34:44Z</time>
      </trkpt>
      <trkpt lat="49.47871" lon="3.23099">
        <ele>131</ele>
        <time>2019-11-11T18:35:11Z</time>
      </trkpt>
      <trkpt lat="49.4786" lon="3.23164">
        <ele>130</ele>
        <time>2019-11-11T18:35:21Z</time>
      </trkpt>
      <trkpt lat="49.4787" lon="3.23222">
        <ele>129</ele>
        <time>2019-11-11T18:35:30Z</time>
      </trkpt>
      <trkpt lat="49.4789" lon="3.23282">
        <ele>129</ele>
        <time>2019-11-11T18:35:40Z</time>
      </trkpt>
      <trkpt lat="49.47988" lon="3.23423">
        <ele>131</ele>
        <time>2019-11-11T18:36:12Z</time>
      </trkpt>
      <trkpt lat="49.47918" lon="3.23409">
        <ele>130</ele>
        <time>2019-11-11T18:36:28Z</time>
      </trkpt>
      <trkpt lat="49.47833" lon="3.23348">
        <ele>129</ele>
        <time>2019-11-11T18:36:50Z</time>
      </trkpt>
      <trkpt lat="49.477" lon="3.23351">
        <ele>133</ele>
        <time>2019-11-11T18:37:21Z</time>
      </trkpt>
      <trkpt lat="49.47583" lon="3.23333">
        <ele>136</ele>
        <time>2019-11-11T18:37:49Z</time>
      </trkpt>
      <trkpt lat="49.47475" lon="3.23348">
        <ele>135</ele>
        <time>2019-11-11T18:38:14Z</time>
      </trkpt>
      <trkpt lat="49.4743" lon="3.23369">
        <ele>134</ele>
        <time>2019-11-11T18:38:25Z</time>
      </trkpt>
      <trkpt lat="49.47704" lon="3.23957">
        <ele>143</ele>
        <time>2019-11-11T18:40:15Z</time>
      </trkpt>
      <trkpt lat="49.47716" lon="3.24001">
        <ele>143</ele>
        <time>2019-11-11T18:40:22Z</time>
      </trkpt>
      <trkpt lat="49.47733" lon="3.24297">
        <ele>144</ele>
        <time>2019-11-11T18:41:07Z</time>
      </trkpt>
      <trkpt lat="49.47772" lon="3.24719">
        <ele>146</ele>
        <time>2019-11-11T18:42:12Z</time>
      </trkpt>
      <trkpt lat="49.47798" lon="3.25354">
        <ele>149</ele>
        <time>2019-11-11T18:43:48Z</time>
      </trkpt>
      <trkpt lat="49.47791" lon="3.25451">
        <ele>148</ele>
        <time>2019-11-11T18:44:03Z</time>
      </trkpt>
      <trkpt lat="49.47721" lon="3.25845">
        <ele>147</ele>
        <time>2019-11-11T18:45:05Z</time>
      </trkpt>
      <trkpt lat="49.47697" lon="3.2596">
        <ele>146</ele>
        <time>2019-11-11T18:45:23Z</time>
      </trkpt>
      <trkpt lat="49.47618" lon="3.2617">
        <ele>144</ele>
        <time>2019-11-11T18:46:00Z</time>
      </trkpt>
      <trkpt lat="49.47583" lon="3.26534">
        <ele>140</ele>
        <time>2019-11-11T18:46:56Z</time>
      </trkpt>
      <trkpt lat="49.47592" lon="3.26678">
        <ele>135</ele>
        <time>2019-11-11T18:47:18Z</time>
      </trkpt>
      <trkpt lat="49.47599" lon="3.2674">
        <ele>135</ele>
        <time>2019-11-11T18:47:28Z</time>
      </trkpt>
      <trkpt lat="49.4758" lon="3.26924">
        <ele>136</ele>
        <time>2019-11-11T18:47:56Z</time>
      </trkpt>
      <trkpt lat="49.47536" lon="3.27032">
        <ele>139</ele>
        <time>2019-11-11T18:48:15Z</time>
      </trkpt>
      <trkpt lat="49.47479" lon="3.27436">
        <ele>143</ele>
        <time>2019-11-11T18:49:18Z</time>
      </trkpt>
      <trkpt lat="49.47411" lon="3.27465">
        <ele>144</ele>
        <time>2019-11-11T18:49:34Z</time>
      </trkpt>
      <trkpt lat="49.47226" lon="3.2762">
        <ele>140</ele>
        <time>2019-11-11T18:50:24Z</time>
      </trkpt>
      <trkpt lat="49.47135" lon="3.27794">
        <ele>138</ele>
        <time>2019-11-11T18:50:58Z</time>
      </trkpt>
      <trkpt lat="49.47043" lon="3.27949">
        <ele>135</ele>
        <time>2019-11-11T18:51:29Z</time>
      </trkpt>
      <trkpt lat="49.46989" lon="3.28024">
        <ele>135</ele>
        <time>2019-11-11T18:51:46Z</time>
      </trkpt>
      <trkpt lat="49.4694" lon="3.27895">
        <ele>135</ele>
        <time>2019-11-11T18:52:09Z</time>
      </trkpt>
      <trkpt lat="49.46907" lon="3.27743">
        <ele>135</ele>
        <time>2019-11-11T18:52:33Z</time>
      </trkpt>
      <trkpt lat="49.46863" lon="3.27609">
        <ele>133</ele>
        <time>2019-11-11T18:52:56Z</time>
      </trkpt>
      <trkpt lat="49.46813" lon="3.2757">
        <ele>134</ele>
        <time>2019-11-11T18:53:09Z</time>
      </trkpt>
      <trkpt lat="49.46506" lon="3.27851">
        <ele>143</ele>
        <time>2019-11-11T18:54:33Z</time>
      </trkpt>
      <trkpt lat="49.46363" lon="3.27873">
        <ele>143</ele>
        <time>2019-11-11T18:55:06Z</time>
      </trkpt>
      <trkpt lat="49.46229" lon="3.27952">
        <ele>141</ele>
        <time>2019-11-11T18:55:40Z</time>
      </trkpt>
      <trkpt lat="49.4614" lon="3.28028">
        <ele>136</ele>
        <time>2019-11-11T18:56:04Z</time>
      </trkpt>
      <trkpt lat="49.46053" lon="3.28147">
        <ele>130</ele>
        <time>2019-11-11T18:56:31Z</time>
      </trkpt>
      <trkpt lat="49.46011" lon="3.28263">
        <ele>127</ele>
        <time>2019-11-11T18:56:51Z</time>
      </trkpt>
      <trkpt lat="49.45946" lon="3.28313">
        <ele>118</ele>
        <time>2019-11-11T18:57:08Z</time>
      </trkpt>
      <trkpt lat="49.45929" lon="3.28378">
        <ele>115</ele>
        <time>2019-11-11T18:57:18Z</time>
      </trkpt>
      <trkpt lat="49.45929" lon="3.28418">
        <ele>114</ele>
        <time>2019-11-11T18:57:25Z</time>
      </trkpt>
      <trkpt lat="49.46002" lon="3.28584">
        <ele>116</ele>
        <time>2019-11-11T18:57:55Z</time>
      </trkpt>
      <trkpt lat="49.46028" lon="3.28613">
        <ele>119</ele>
        <time>2019-11-11T18:58:02Z</time>
      </trkpt>
      <trkpt lat="49.46018" lon="3.2866">
        <ele>116</ele>
        <time>2019-11-11T18:58:10Z</time>
      </trkpt>
      <trkpt lat="49.45997" lon="3.28663">
        <ele>113</ele>
        <time>2019-11-11T18:58:15Z</time>
      </trkpt>
      <trkpt lat="49.45957" lon="3.28634">
        <ele>106</ele>
        <time>2019-11-11T18:58:25Z</time>
      </trkpt>
      <trkpt lat="49.45943" lon="3.28595">
        <ele>102</ele>
        <time>2019-11-11T18:58:32Z</time>
      </trkpt>
      <trkpt lat="49.45906" lon="3.28559">
        <ele>96</ele>
        <time>2019-11-11T18:58:42Z</time>
      </trkpt>
      <trkpt lat="49.45838" lon="3.28447">
        <ele>89</ele>
        <time>2019-11-11T18:59:05Z</time>
      </trkpt>
      <trkpt lat="49.458" lon="3.28577">
        <ele>82</ele>
        <time>2019-11-11T18:59:27Z</time>
      </trkpt>
      <trkpt lat="49.45746" lon="3.28642">
        <ele>82</ele>
        <time>2019-11-11T18:59:43Z</time>
      </trkpt>
      <trkpt lat="49.45596" lon="3.2888">
        <ele>93</ele>
        <time>2019-11-11T19:00:33Z</time>
      </trkpt>
      <trkpt lat="49.45573" lon="3.29172">
        <ele>102</ele>
        <time>2019-11-11T19:01:18Z</time>
      </trkpt>
      <trkpt lat="49.45589" lon="3.29374">
        <ele>106</ele>
        <time>2019-11-11T19:01:49Z</time>
      </trkpt>
      <trkpt lat="49.45612" lon="3.29555">
        <ele>110</ele>
        <time>2019-11-11T19:02:17Z</time>
      </trkpt>
      <trkpt lat="49.45706" lon="3.2967">
        <ele>113</ele>
        <time>2019-11-11T19:02:45Z</time>
      </trkpt>
      <trkpt lat="49.45833" lon="3.30042">
        <ele>119</ele>
        <time>2019-11-11T19:03:49Z</time>
      </trkpt>
      <trkpt lat="49.45824" lon="3.30125">
        <ele>122</ele>
        <time>2019-11-11T19:04:02Z</time>
      </trkpt>
      <trkpt lat="49.45744" lon="3.30063">
        <ele>125</ele>
        <time>2019-11-11T19:04:23Z</time>
      </trkpt>
      <trkpt lat="49.45704" lon="3.30045">
        <ele>127</ele>
        <time>2019-11-11T19:04:32Z</time>
      </trkpt>
      <trkpt lat="49.45643" lon="3.30063">
        <ele>133</ele>
        <time>2019-11-11T19:04:47Z</time>
      </trkpt>
      <trkpt lat="49.45574" lon="3.30128">
        <ele>138</ele>
        <time>2019-11-11T19:05:06Z</time>
      </trkpt>
      <trkpt lat="49.45535" lon="3.30326">
        <ele>144</ele>
        <time>2019-11-11T19:05:37Z</time>
      </trkpt>
      <trkpt lat="49.45499" lon="3.30403">
        <ele>148</ele>
        <time>2019-11-11T19:05:51Z</time>
      </trkpt>
      <trkpt lat="49.45323" lon="3.30661">
        <ele>151</ele>
        <time>2019-11-11T19:06:48Z</time>
      </trkpt>
      <trkpt lat="49.45211" lon="3.31141">
        <ele>151</ele>
        <time>2019-11-11T19:08:06Z</time>
      </trkpt>
      <trkpt lat="49.45097" lon="3.31536">
        <ele>144</ele>
        <time>2019-11-11T19:09:11Z</time>
      </trkpt>
      <trkpt lat="49.45065" lon="3.31595">
        <ele>146</ele>
        <time>2019-11-11T19:09:23Z</time>
      </trkpt>
      <trkpt lat="49.4496" lon="3.31745">
        <ele>145</ele>
        <time>2019-11-11T19:09:56Z</time>
      </trkpt>
      <trkpt lat="49.44943" lon="3.31798">
        <ele>146</ele>
        <time>2019-11-11T19:10:05Z</time>
      </trkpt>
      <trkpt lat="49.44887" lon="3.31827">
        <ele>143</ele>
        <time>2019-11-11T19:10:19Z</time>
      </trkpt>
      <trkpt lat="49.44818" lon="3.31869">
        <ele>139</ele>
        <time>2019-11-11T19:10:36Z</time>
      </trkpt>
      <trkpt lat="49.44784" lon="3.3188">
        <ele>136</ele>
        <time>2019-11-11T19:10:45Z</time>
      </trkpt>
      <trkpt lat="49.44752" lon="3.31883">
        <ele>134</ele>
        <time>2019-11-11T19:10:52Z</time>
      </trkpt>
      <trkpt lat="49.44749" lon="3.3196">
        <ele>133</ele>
        <time>2019-11-11T19:11:04Z</time>
      </trkpt>
      <trkpt lat="49.44758" lon="3.32016">
        <ele>132</ele>
        <time>2019-11-11T19:11:13Z</time>
      </trkpt>
      <trkpt lat="49.44726" lon="3.32025">
        <ele>128</ele>
        <time>2019-11-11T19:11:20Z</time>
      </trkpt>
      <trkpt lat="49.44678" lon="3.32004">
        <ele>122</ele>
        <time>2019-11-11T19:11:32Z</time>
      </trkpt>
      <trkpt lat="49.44586" lon="3.31875">
        <ele>107</ele>
        <time>2019-11-11T19:12:01Z</time>
      </trkpt>
      <trkpt lat="49.44531" lon="3.31822">
        <ele>102</ele>
        <time>2019-11-11T19:12:16Z</time>
      </trkpt>
      <trkpt lat="49.44475" lon="3.31804">
        <ele>98</ele>
        <time>2019-11-11T19:12:29Z</time>
      </trkpt>
      <trkpt lat="49.44452" lon="3.31772">
        <ele>96</ele>
        <time>2019-11-11T19:12:37Z</time>
      </trkpt>
      <trkpt lat="49.44437" lon="3.31702">
        <ele>93</ele>
        <time>2019-11-11T19:12:48Z</time>
      </trkpt>
      <trkpt lat="49.44401" lon="3.31625">
        <ele>90</ele>
        <time>2019-11-11T19:13:02Z</time>
      </trkpt>
      <trkpt lat="49.44266" lon="3.31547">
        <ele>92</ele>
        <time>2019-11-11T19:13:36Z</time>
      </trkpt>
      <trkpt lat="49.44196" lon="3.31513">
        <ele>90</ele>
        <time>2019-11-11T19:13:53Z</time>
      </trkpt>
      <trkpt lat="49.44162" lon="3.31504">
        <ele>88</ele>
        <time>2019-11-11T19:14:01Z</time>
      </trkpt>
      <trkpt lat="49.44137" lon="3.31504">
        <ele>89</ele>
        <time>2019-11-11T19:14:07Z</time>
      </trkpt>
      <trkpt lat="49.4407" lon="3.31521">
        <ele>91</ele>
        <time>2019-11-11T19:14:23Z</time>
      </trkpt>
      <trkpt lat="49.43983" lon="3.31535">
        <ele>88</ele>
        <time>2019-11-11T19:14:43Z</time>
      </trkpt>
      <trkpt lat="49.43943" lon="3.3156">
        <ele>86</ele>
        <time>2019-11-11T19:14:53Z</time>
      </trkpt>
      <trkpt lat="49.43873" lon="3.31636">
        <ele>86</ele>
        <time>2019-11-11T19:15:13Z</time>
      </trkpt>
      <trkpt lat="49.4386" lon="3.31655">
        <ele>86</ele>
        <time>2019-11-11T19:15:18Z</time>
      </trkpt>
      <trkpt lat="49.43863" lon="3.31674">
        <ele>87</ele>
        <time>2019-11-11T19:15:20Z</time>
      </trkpt>
      <trkpt lat="49.43855" lon="3.31692">
        <ele>88</ele>
        <time>2019-11-11T19:15:24Z</time>
      </trkpt>
      <trkpt lat="49.43839" lon="3.31715">
        <ele>89</ele>
        <time>2019-11-11T19:15:29Z</time>
      </trkpt>
      <trkpt lat="49.43787" lon="3.31757">
        <ele>90</ele>
        <time>2019-11-11T19:15:43Z</time>
      </trkpt>
      <trkpt lat="49.43728" lon="3.31777">
        <ele>88</ele>
        <time>2019-11-11T19:15:57Z</time>
      </trkpt>
      <trkpt lat="49.43593" lon="3.31846">
        <ele>88</ele>
        <time>2019-11-11T19:16:30Z</time>
      </trkpt>
      <trkpt lat="49.43444" lon="3.31939">
        <ele>85</ele>
        <time>2019-11-11T19:17:08Z</time>
      </trkpt>
      <trkpt lat="49.43431" lon="3.31951">
        <ele>84</ele>
        <time>2019-11-11T19:17:11Z</time>
      </trkpt>
      <trkpt lat="49.43419" lon="3.31951">
        <ele>83</ele>
        <time>2019-11-11T19:17:14Z</time>
      </trkpt>
      <trkpt lat="49.43402" lon="3.31919">
        <ele>82</ele>
        <time>2019-11-11T19:17:20Z</time>
      </trkpt>
      <trkpt lat="49.43329" lon="3.3175">
        <ele>76</ele>
        <time>2019-11-11T19:17:51Z</time>
      </trkpt>
      <trkpt lat="49.43309" lon="3.31694">
        <ele>77</ele>
        <time>2019-11-11T19:18:01Z</time>
      </trkpt>
      <trkpt lat="49.43309" lon="3.31673">
        <ele>77</ele>
        <time>2019-11-11T19:18:04Z</time>
      </trkpt>
      <trkpt lat="49.43214" lon="3.31761">
        <ele>76</ele>
        <time>2019-11-11T19:18:30Z</time>
      </trkpt>
      <trkpt lat="49.43138" lon="3.31813">
        <ele>76</ele>
        <time>2019-11-11T19:18:49Z</time>
      </trkpt>
      <trkpt lat="49.43139" lon="3.31821">
        <ele>76</ele>
        <time>2019-11-11T19:18:50Z</time>
      </trkpt>
      <trkpt lat="49.4311" lon="3.3187">
        <ele>74</ele>
        <time>2019-11-11T19:19:00Z</time>
      </trkpt>
      <trkpt lat="49.43099" lon="3.31901">
        <ele>73</ele>
        <time>2019-11-11T19:19:06Z</time>
      </trkpt>
      <trkpt lat="49.43079" lon="3.32159">
        <ele>79</ele>
        <time>2019-11-11T19:19:45Z</time>
      </trkpt>
      <trkpt lat="49.43071" lon="3.32225">
        <ele>87</ele>
        <time>2019-11-11T19:19:55Z</time>
      </trkpt>
      <trkpt lat="49.4308" lon="3.32259">
        <ele>90</ele>
        <time>2019-11-11T19:20:01Z</time>
      </trkpt>
      <trkpt lat="49.43095" lon="3.3229">
        <ele>91</ele>
        <time>2019-11-11T19:20:07Z</time>
      </trkpt>
      <trkpt lat="49.43128" lon="3.32347">
        <ele>90</ele>
        <time>2019-11-11T19:20:19Z</time>
      </trkpt>
      <trkpt lat="49.43193" lon="3.32419">
        <ele>84</ele>
        <time>2019-11-11T19:20:37Z</time>
      </trkpt>
      <trkpt lat="49.43217" lon="3.32461">
        <ele>85</ele>
        <time>2019-11-11T19:20:46Z</time>
      </trkpt>
      <trkpt lat="49.43241" lon="3.32527">
        <ele>85</ele>
        <time>2019-11-11T19:20:57Z</time>
      </trkpt>
      <trkpt lat="49.43266" lon="3.32581">
        <ele>86</ele>
        <time>2019-11-11T19:21:07Z</time>
      </trkpt>
      <trkpt lat="49.43273" lon="3.32627">
        <ele>85</ele>
        <time>2019-11-11T19:21:14Z</time>
      </trkpt>
      <trkpt lat="49.43271" lon="3.32678">
        <ele>85</ele>
        <time>2019-11-11T19:21:22Z</time>
      </trkpt>
      <trkpt lat="49.43252" lon="3.32825">
        <ele>86</ele>
        <time>2019-11-11T19:21:45Z</time>
      </trkpt>
      <trkpt lat="49.43263" lon="3.32839">
        <ele>85</ele>
        <time>2019-11-11T19:21:48Z</time>
      </trkpt>
      <trkpt lat="49.43328" lon="3.32839">
        <ele>79</ele>
        <time>2019-11-11T19:22:03Z</time>
      </trkpt>
      <trkpt lat="49.43399" lon="3.32684">
        <ele>81</ele>
        <time>2019-11-11T19:22:32Z</time>
      </trkpt>
      <trkpt lat="49.43441" lon="3.32654">
        <ele>81</ele>
        <time>2019-11-11T19:22:43Z</time>
      </trkpt>
      <trkpt lat="49.43477" lon="3.32641">
        <ele>81</ele>
        <time>2019-11-11T19:22:52Z</time>
      </trkpt>
      <trkpt lat="49.43543" lon="3.32672">
        <ele>80</ele>
        <time>2019-11-11T19:23:08Z</time>
      </trkpt>
      <trkpt lat="49.43586" lon="3.32712">
        <ele>81</ele>
        <time>2019-11-11T19:23:20Z</time>
      </trkpt>
      <trkpt lat="49.43592" lon="3.32729">
        <ele>83</ele>
        <time>2019-11-11T19:23:23Z</time>
      </trkpt>
      <trkpt lat="49.43563" lon="3.32763">
        <ele>87</ele>
        <time>2019-11-11T19:23:31Z</time>
      </trkpt>
      <trkpt lat="49.43495" lon="3.32799">
        <ele>96</ele>
        <time>2019-11-11T19:23:48Z</time>
      </trkpt>
      <trkpt lat="49.43453" lon="3.32883">
        <ele>103</ele>
        <time>2019-11-11T19:24:04Z</time>
      </trkpt>
      <trkpt lat="49.4338" lon="3.33175">
        <ele>119</ele>
        <time>2019-11-11T19:24:51Z</time>
      </trkpt>
      <trkpt lat="49.43183" lon="3.33332">
        <ele>123</ele>
        <time>2019-11-11T19:25:43Z</time>
      </trkpt>
      <trkpt lat="49.43147" lon="3.33336">
        <ele>121</ele>
        <time>2019-11-11T19:25:52Z</time>
      </trkpt>
      <trkpt lat="49.43117" lon="3.33358">
        <ele>122</ele>
        <time>2019-11-11T19:25:59Z</time>
      </trkpt>
      <trkpt lat="49.4306" lon="3.33392">
        <ele>125</ele>
        <time>2019-11-11T19:26:14Z</time>
      </trkpt>
      <trkpt lat="49.43017" lon="3.3344">
        <ele>129</ele>
        <time>2019-11-11T19:26:26Z</time>
      </trkpt>
      <trkpt lat="49.43" lon="3.33438">
        <ele>129</ele>
        <time>2019-11-11T19:26:30Z</time>
      </trkpt>
      <trkpt lat="49.42977" lon="3.33457">
        <ele>132</ele>
        <time>2019-11-11T19:26:36Z</time>
      </trkpt>
      <trkpt lat="49.42934" lon="3.33456">
        <ele>133</ele>
        <time>2019-11-11T19:26:46Z</time>
      </trkpt>
      <trkpt lat="49.42885" lon="3.33433">
        <ele>134</ele>
        <time>2019-11-11T19:26:58Z</time>
      </trkpt>
      <trkpt lat="49.42798" lon="3.33414">
        <ele>140</ele>
        <time>2019-11-11T19:27:19Z</time>
      </trkpt>
      <trkpt lat="49.42636" lon="3.33447">
        <ele>147</ele>
        <time>2019-11-11T19:27:57Z</time>
      </trkpt>
      <trkpt lat="49.42479" lon="3.33487">
        <ele>152</ele>
        <time>2019-11-11T19:28:34Z</time>
      </trkpt>
      <trkpt lat="49.42046" lon="3.33648">
        <ele>149</ele>
        <time>2019-11-11T19:30:18Z</time>
      </trkpt>
      <trkpt lat="49.41984" lon="3.33668">
        <ele>148</ele>
        <time>2019-11-11T19:30:33Z</time>
      </trkpt>
      <trkpt lat="49.41916" lon="3.33685">
        <ele>147</ele>
        <time>2019-11-11T19:30:49Z</time>
      </trkpt>
      <trkpt lat="49.4167" lon="3.33651">
        <ele>139</ele>
        <time>2019-11-11T19:31:47Z</time>
      </trkpt>
      <trkpt lat="49.41625" lon="3.33659">
        <ele>136</ele>
        <time>2019-11-11T19:31:57Z</time>
      </trkpt>
      <trkpt lat="49.41602" lon="3.33665">
        <ele>135</ele>
        <time>2019-11-11T19:32:03Z</time>
      </trkpt>
      <trkpt lat="49.41482" lon="3.33751">
        <ele>127</ele>
        <time>2019-11-11T19:32:34Z</time>
      </trkpt>
      <trkpt lat="49.41461" lon="3.33748">
        <ele>126</ele>
        <time>2019-11-11T19:32:39Z</time>
      </trkpt>
      <trkpt lat="49.41447" lon="3.33741">
        <ele>126</ele>
        <time>2019-11-11T19:32:42Z</time>
      </trkpt>
      <trkpt lat="49.41418" lon="3.33743">
        <ele>124</ele>
        <time>2019-11-11T19:32:49Z</time>
      </trkpt>
      <trkpt lat="49.41392" lon="3.33715">
        <ele>124</ele>
        <time>2019-11-11T19:32:56Z</time>
      </trkpt>
      <trkpt lat="49.41376" lon="3.33685">
        <ele>122</ele>
        <time>2019-11-11T19:33:02Z</time>
      </trkpt>
      <trkpt lat="49.41316" lon="3.33604">
        <ele>113</ele>
        <time>2019-11-11T19:33:21Z</time>
      </trkpt>
      <trkpt lat="49.41281" lon="3.33492">
        <ele>107</ele>
        <time>2019-11-11T19:33:40Z</time>
      </trkpt>
      <trkpt lat="49.41258" lon="3.33429">
        <ele>99</ele>
        <time>2019-11-11T19:33:51Z</time>
      </trkpt>
      <trkpt lat="49.41255" lon="3.33375">
        <ele>97</ele>
        <time>2019-11-11T19:33:59Z</time>
      </trkpt>
      <trkpt lat="49.41237" lon="3.33312">
        <ele>94</ele>
        <time>2019-11-11T19:34:09Z</time>
      </trkpt>
      <trkpt lat="49.41244" lon="3.33063">
        <ele>83</ele>
        <time>2019-11-11T19:34:47Z</time>
      </trkpt>
      <trkpt lat="49.41238" lon="3.33056">
        <ele>83</ele>
        <time>2019-11-11T19:34:49Z</time>
      </trkpt>
      <trkpt lat="49.41153" lon="3.33042">
        <ele>82</ele>
        <time>2019-11-11T19:35:09Z</time>
      </trkpt>
      <trkpt lat="49.4113" lon="3.32964">
        <ele>81</ele>
        <time>2019-11-11T19:35:22Z</time>
      </trkpt>
      <trkpt lat="49.41087" lon="3.3289">
        <ele>79</ele>
        <time>2019-11-11T19:35:37Z</time>
      </trkpt>
      <trkpt lat="49.4104" lon="3.32848">
        <ele>76</ele>
        <time>2019-11-11T19:35:50Z</time>
      </trkpt>
      <trkpt lat="49.40945" lon="3.32783">
        <ele>74</ele>
        <time>2019-11-11T19:36:14Z</time>
      </trkpt>
      <trkpt lat="49.40918" lon="3.3276">
        <ele>73</ele>
        <time>2019-11-11T19:36:21Z</time>
      </trkpt>
      <trkpt lat="49.40791" lon="3.32502">
        <ele>72</ele>
        <time>2019-11-11T19:37:10Z</time>
      </trkpt>
      <trkpt lat="49.40758" lon="3.32522">
        <ele>70</ele>
        <time>2019-11-11T19:37:19Z</time>
      </trkpt>
      <trkpt lat="49.40741" lon="3.32525">
        <ele>69</ele>
        <time>2019-11-11T19:37:23Z</time>
      </trkpt>
      <trkpt lat="49.40702" lon="3.32464">
        <ele>70</ele>
        <time>2019-11-11T19:37:36Z</time>
      </trkpt>
      <trkpt lat="49.40683" lon="3.32456">
        <ele>70</ele>
        <time>2019-11-11T19:37:40Z</time>
      </trkpt>
      <trkpt lat="49.40574" lon="3.32429">
        <ele>69</ele>
        <time>2019-11-11T19:38:06Z</time>
      </trkpt>
      <trkpt lat="49.40566" lon="3.32418">
        <ele>69</ele>
        <time>2019-11-11T19:38:08Z</time>
      </trkpt>
      <trkpt lat="49.40537" lon="3.32262">
        <ele>66</ele>
        <time>2019-11-11T19:38:33Z</time>
      </trkpt>
      <trkpt lat="49.40498" lon="3.32302">
        <ele>64</ele>
        <time>2019-11-11T19:38:44Z</time>
      </trkpt>
      <trkpt lat="49.40454" lon="3.32333">
        <ele>64</ele>
        <time>2019-11-11T19:38:55Z</time>
      </trkpt>
      <trkpt lat="49.40424" lon="3.32333">
        <ele>63</ele>
        <time>2019-11-11T19:39:02Z</time>
      </trkpt>
      <trkpt lat="49.40382" lon="3.32312">
        <ele>65</ele>
        <time>2019-11-11T19:39:13Z</time>
      </trkpt>
      <trkpt lat="49.40332" lon="3.32262">
        <ele>63</ele>
        <time>2019-11-11T19:39:27Z</time>
      </trkpt>
      <trkpt lat="49.40297" lon="3.32221">
        <ele>62</ele>
        <time>2019-11-11T19:39:37Z</time>
      </trkpt>
      <trkpt lat="49.40268" lon="3.32199">
        <ele>61</ele>
        <time>2019-11-11T19:39:44Z</time>
      </trkpt>
      <trkpt lat="49.40271" lon="3.32182">
        <ele>59</ele>
        <time>2019-11-11T19:39:47Z</time>
      </trkpt>
      <trkpt lat="49.40262" lon="3.32183">
        <ele>59</ele>
        <time>2019-11-11T19:39:49Z</time>
      </trkpt>
      <trkpt lat="49.40257" lon="3.32192">
        <ele>60</ele>
        <time>2019-11-11T19:39:51Z</time>
      </trkpt>
      <trkpt lat="49.40203" lon="3.32183">
        <ele>60</ele>
        <time>2019-11-11T19:40:04Z</time>
      </trkpt>
      <trkpt lat="49.4018" lon="3.32187">
        <ele>60</ele>
        <time>2019-11-11T19:40:09Z</time>
      </trkpt>
      <trkpt lat="49.40142" lon="3.32199">
        <ele>60</ele>
        <time>2019-11-11T19:40:18Z</time>
      </trkpt>
      <trkpt lat="49.40087" lon="3.32193">
        <ele>56</ele>
        <time>2019-11-11T19:40:31Z</time>
      </trkpt>
      <trkpt lat="49.40056" lon="3.3221">
        <ele>56</ele>
        <time>2019-11-11T19:40:39Z</time>
      </trkpt>
      <trkpt lat="49.40001" lon="3.32262">
        <ele>53</ele>
        <time>2019-11-11T19:40:54Z</time>
      </trkpt>
      <trkpt lat="49.3992" lon="3.32349">
        <ele>48</ele>
        <time>2019-11-11T19:41:17Z</time>
      </trkpt>
      <trkpt lat="49.39896" lon="3.32393">
        <ele>47</ele>
        <time>2019-11-11T19:41:26Z</time>
      </trkpt>
      <trkpt lat="49.39887" lon="3.32402">
        <ele>46</ele>
        <time>2019-11-11T19:41:28Z</time>
      </trkpt>
      <trkpt lat="49.39882" lon="3.32399">
        <ele>46</ele>
        <time>2019-11-11T19:41:29Z</time>
      </trkpt>
      <trkpt lat="49.39877" lon="3.324">
        <ele>46</ele>
        <time>2019-11-11T19:41:31Z</time>
      </trkpt>
      <trkpt lat="49.39874" lon="3.32405">
        <ele>45</ele>
        <time>2019-11-11T19:41:32Z</time>
      </trkpt>
      <trkpt lat="49.39874" lon="3.32415">
        <ele>45</ele>
        <time>2019-11-11T19:41:33Z</time>
      </trkpt>
      <trkpt lat="49.39879" lon="3.32425">
        <ele>46</ele>
        <time>2019-11-11T19:41:35Z</time>
      </trkpt>
      <trkpt lat="49.39879" lon="3.32433">
        <ele>46</ele>
        <time>2019-11-11T19:41:36Z</time>
      </trkpt>
      <trkpt lat="49.39875" lon="3.32449">
        <ele>46</ele>
        <time>2019-11-11T19:41:39Z</time>
      </trkpt>
      <trkpt lat="49.39844" lon="3.3254">
        <ele>44</ele>
        <time>2019-11-11T19:41:54Z</time>
      </trkpt>
      <trkpt lat="49.39785" lon="3.32684">
        <ele>44</ele>
        <time>2019-11-11T19:42:20Z</time>
      </trkpt>
      <trkpt lat="49.39731" lon="3.32618">
        <ele>41</ele>
        <time>2019-11-11T19:42:36Z</time>
      </trkpt>
      <trkpt lat="49.39718" lon="3.32598">
        <ele>40</ele>
        <time>2019-11-11T19:42:41Z</time>
      </trkpt>
      <trkpt lat="49.39711" lon="3.32593">
        <ele>40</ele>
        <time>2019-11-11T19:42:43Z</time>
      </trkpt>
      <trkpt lat="49.397" lon="3.32588">
        <ele>40</ele>
        <time>2019-11-11T19:42:45Z</time>
      </trkpt>
      <trkpt lat="49.39689" lon="3.32591">
        <ele>40</ele>
        <time>2019-11-11T19:42:48Z</time>
      </trkpt>
      <trkpt lat="49.39674" lon="3.32603">
        <ele>40</ele>
        <time>2019-11-11T19:42:52Z</time>
      </trkpt>
      <trkpt lat="49.39596" lon="3.32575">
        <ele>39</ele>
        <time>2019-11-11T19:43:10Z</time>
      </trkpt>
      <trkpt lat="49.39582" lon="3.32574">
        <ele>39</ele>
        <time>2019-11-11T19:43:14Z</time>
      </trkpt>
      <trkpt lat="49.39567" lon="3.32582">
        <ele>39</ele>
        <time>2019-11-11T19:43:17Z</time>
      </trkpt>
      <trkpt lat="49.39561" lon="3.32578">
        <ele>39</ele>
        <time>2019-11-11T19:43:19Z</time>
      </trkpt>
      <trkpt lat="49.39547" lon="3.32583">
        <ele>39</ele>
        <time>2019-11-11T19:43:22Z</time>
      </trkpt>
      <trkpt lat="49.39543" lon="3.32588">
        <ele>39</ele>
        <time>2019-11-11T19:43:24Z</time>
      </trkpt>
      <trkpt lat="49.39545" lon="3.32608">
        <ele>39</ele>
        <time>2019-11-11T19:43:27Z</time>
      </trkpt>
      <trkpt lat="49.39509" lon="3.32623">
        <ele>39</ele>
        <time>2019-11-11T19:43:35Z</time>
      </trkpt>
      <trkpt lat="49.39182" lon="3.3273">
        <ele>42</ele>
        <time>2019-11-11T19:44:53Z</time>
      </trkpt>
    </trkseg>
  </trk>
</gpx>